Taurus — WDB5562 — position and weather

sailwx.info

Track history (hours):
 
Tides and Currents Weather Stations Pressure Air Temp Water Temp Dewpoint Dewpoint Depression Visibility Wind Speed Wind Dir Waves Ship Positions

Taurus

Owner: Kirby Offshore Marine, LLC, Seattle, WA. More information available from US FCC via Universal Licensing System and Coast Guard Vessel Documentation Center.

Last reported at 2018-Feb-22 09:00 UTC. Time now 2018-Feb-22 09:04 UTC.
Position N 39°51' W 075°18'.

Length 24 m.

Type: Ship (hazmat cat B). MMSI: 366910990.

Date/timePositionNaut miles runAvg speedWind from/ knotsBaromVisibWave heightAir tempDewpointWater temp
2018-Feb-22 09:00N 39°51' W 075°18'0 0.3
2018-Feb-22 08:30N 39°51' W 075°18'0 0.0
2018-Feb-22 08:00N 39°51' W 075°18'0 0.0
2018-Feb-22 07:30N 39°51' W 075°18'0 0.0
2018-Feb-22 07:00N 39°51' W 075°18'0 0.5
2018-Feb-22 06:30N 39°51' W 075°18'3 5.9
2018-Feb-22 05:59N 39°50' W 075°22'0 0.4
2018-Feb-22 05:30N 39°49' W 075°22'0 0.2
2018-Feb-22 05:00N 39°50' W 075°22'1 2.4
2018-Feb-22 04:30N 39°51' W 075°21'2 4.7
2018-Feb-22 04:00N 39°51' W 075°18'0 0.3
2018-Feb-22 03:30N 39°51' W 075°18'0 0.3
2018-Feb-22 03:00N 39°51' W 075°18'0 0.2
2018-Feb-22 02:30N 39°51' W 075°18'0 0.1
2018-Feb-22 02:00N 39°51' W 075°18'1 2.7
2018-Feb-22 01:30N 39°51' W 075°20'2 4.3
2018-Feb-22 01:00N 39°50' W 075°22'0 0.8
2018-Feb-22 00:30N 39°49' W 075°22'0 0.2
2018-Feb-22 00:00N 39°49' W 075°22'2 3.7
2018-Feb-21 23:30N 39°51' W 075°20'2 3.2
2018-Feb-21 23:00N 39°51' W 075°18'2 5.0
2018-Feb-21 22:30N 39°50' W 075°21'2 3.4
2018-Feb-21 22:00N 39°50' W 075°23'0 0.0
2018-Feb-21 10:17N 39°50' W 075°23'2 6.7
2018-Feb-21 10:00N 39°51' W 075°21'3 5.2
2018-Feb-21 09:31N 39°51' W 075°18'0 0.2
2018-Feb-21 09:01N 39°51' W 075°18'0 0.0
2018-Feb-21 08:31N 39°51' W 075°18'0 0.0
2018-Feb-21 08:01N 39°51' W 075°18'0 0.0
2018-Feb-21 07:30N 39°51' W 075°18'0 0.0
2018-Feb-21 07:00N 39°51' W 075°18'0 0.0
2018-Feb-21 06:31N 39°51' W 075°18'0 0.0
2018-Feb-21 06:00N 39°51' W 075°18'0 0.0
2018-Feb-21 05:30N 39°51' W 075°18'0 0.0
2018-Feb-21 05:00N 39°51' W 075°18'0 0.0
2018-Feb-21 04:31N 39°51' W 075°18'0 0.0
2018-Feb-21 04:01N 39°51' W 075°18'0 0.0
2018-Feb-21 03:30N 39°51' W 075°18'0 0.0
2018-Feb-21 03:00N 39°51' W 075°18'0 0.0
2018-Feb-21 02:30N 39°51' W 075°18'0 0.0
2018-Feb-21 02:00N 39°51' W 075°18'0 0.0
2018-Feb-21 01:30N 39°51' W 075°18'0 0.1
2018-Feb-21 01:00N 39°51' W 075°18'2 4.0
2018-Feb-21 00:31N 39°51' W 075°20'1 2.8
2018-Feb-21 00:01N 39°50' W 075°22'1 1.6
2018-Feb-20 23:30N 39°50' W 075°21'3 5.5
2018-Feb-20 23:01N 39°51' W 075°18'5 9.5
2018-Feb-20 22:30N 39°53' W 075°12'0 0.9
2018-Feb-20 22:00N 39°53' W 075°12'3 6.8
2018-Feb-20 21:31N 39°55' W 075°08'3 5.5
2018-Feb-20 21:00N 39°57' W 075°08'1 1.7
2018-Feb-20 20:31N 39°57' W 075°08'4 7.9
2018-Feb-20 20:01N 39°53' W 075°10'5 9.1
2018-Feb-20 19:30N 39°51' W 075°15'4 8.0
2018-Feb-20 19:00N 39°51' W 075°20'2 4.8
2018-Feb-20 18:30N 39°49' W 075°23'0 0.4
2018-Feb-20 18:01N 39°50' W 075°23'0 0.0
2018-Feb-20 17:31N 39°50' W 075°23'0 0.0
2018-Feb-20 17:00N 39°50' W 075°23'0 0.0
2018-Feb-20 05:48N 39°50' W 075°23'1 3.0
2018-Feb-20 05:30N 39°49' W 075°22'0 0.4
2018-Feb-20 05:00N 39°49' W 075°22'0 0.1
2018-Feb-20 04:30N 39°49' W 075°22'0 0.0
2018-Feb-20 04:00N 39°49' W 075°22'0 0.0
2018-Feb-20 03:30N 39°49' W 075°22'0 0.0
2018-Feb-20 03:00N 39°49' W 075°22'0 0.0
2018-Feb-20 02:30N 39°49' W 075°22'0 0.0
2018-Feb-20 02:00N 39°49' W 075°22'0 0.0
2018-Feb-20 01:30N 39°49' W 075°22'0 0.0
2018-Feb-20 01:00N 39°49' W 075°22'0 0.2
2018-Feb-20 00:30N 39°49' W 075°22'0 0.0
2018-Feb-20 00:00N 39°49' W 075°22'0 0.0
2018-Feb-19 23:30N 39°49' W 075°22'0 0.0
2018-Feb-19 23:00N 39°49' W 075°22'0 0.2
2018-Feb-19 22:30N 39°49' W 075°21'2 4.6
2018-Feb-19 22:01N 39°51' W 075°19'3 6.4
2018-Feb-19 21:31N 39°50' W 075°23'0 0.0
2018-Feb-19 21:00N 39°50' W 075°23'0 0.0
2018-Feb-19 09:14N 39°50' W 075°23'1 4.2
2018-Feb-19 09:01N 39°50' W 075°22'3 6.5
2018-Feb-19 08:29N 39°51' W 075°18'0 0.2
2018-Feb-19 08:00N 39°51' W 075°18'0 0.0
2018-Feb-19 07:30N 39°51' W 075°18'0 0.0
2018-Feb-19 07:00N 39°51' W 075°18'0 0.0
2018-Feb-19 06:30N 39°51' W 075°18'0 0.0
2018-Feb-19 06:01N 39°51' W 075°18'0 0.0
2018-Feb-19 05:30N 39°51' W 075°18'0 0.0
2018-Feb-19 05:01N 39°51' W 075°18'0 0.0
2018-Feb-19 04:31N 39°51' W 075°18'0 0.0
2018-Feb-19 04:00N 39°51' W 075°18'0 0.0
2018-Feb-19 03:31N 39°51' W 075°18'0 0.0
2018-Feb-19 03:01N 39°51' W 075°18'0 0.0
2018-Feb-19 02:30N 39°51' W 075°18'0 0.0
2018-Feb-19 02:00N 39°51' W 075°18'0 0.0
2018-Feb-19 01:30N 39°51' W 075°18'0 0.0
2018-Feb-19 01:00N 39°51' W 075°18'0 0.0
2018-Feb-19 00:31N 39°51' W 075°18'0 0.0
2018-Feb-19 00:01N 39°51' W 075°18'0 0.0
2018-Feb-18 23:30N 39°51' W 075°18'0 0.0
2018-Feb-18 23:00N 39°51' W 075°18'3 5.1
2018-Feb-18 22:30N 39°51' W 075°21'1 0.1
2018-Feb-18 01:41N 39°50' W 075°23'1 5.6
2018-Feb-18 01:30N 39°49' W 075°21'0 0.8
2018-Feb-18 01:00N 39°50' W 075°22'3 5.0
2018-Feb-18 00:30N 39°51' W 075°19'4 8.1
2018-Feb-18 00:01N 39°52' W 075°14'4 7.9
2018-Feb-17 23:30N 39°53' W 075°09'4 7.5
2018-Feb-17 23:00N 39°57' W 075°08'4 7.4
2018-Feb-17 22:30N 39°59' W 075°04'4 7.5
2018-Feb-17 22:01N 40°01' W 075°01'3 6.8
2018-Feb-17 21:30N 40°04' W 074°57'3 6.8
2018-Feb-17 21:00N 40°05' W 074°53'3 6.1
2018-Feb-17 20:30N 40°06' W 074°50'2 4.9
2018-Feb-17 20:00N 40°07' W 074°47'2 3.2
2018-Feb-17 19:27N 40°08' W 074°45'0 0.0
2018-Feb-17 19:00N 40°08' W 074°45'0 0.1
2018-Feb-17 18:30N 40°08' W 074°45'0 0.0
2018-Feb-17 17:59N 40°08' W 074°45'0 0.0
2018-Feb-17 17:30N 40°08' W 074°45'0 0.0
2018-Feb-17 17:00N 40°08' W 074°45'0 0.0
2018-Feb-17 16:30N 40°08' W 074°45'0 0.0
2018-Feb-17 15:55N 40°08' W 074°45'0 0.0
2018-Feb-17 15:30N 40°08' W 074°45'0 0.0
2018-Feb-17 15:00N 40°08' W 074°45'0 0.0
2018-Feb-17 14:30N 40°08' W 074°45'0 0.0
2018-Feb-17 13:47N 40°08' W 074°45'0 0.0
2018-Feb-17 13:27N 40°08' W 074°45'0 0.0
2018-Feb-17 12:37N 40°08' W 074°45'0 0.0
2018-Feb-17 12:20N 40°08' W 074°45'0 0.1
2018-Feb-17 11:59N 40°08' W 074°45'34 3.3
2018-Feb-17 01:54N 39°50' W 075°22'0 0.3
2018-Feb-17 01:10N 39°50' W 075°22'1 0.2
2018-Feb-16 21:12N 39°50' W 075°23'1 0.5
2018-Feb-16 18:54N 39°49' W 075°21'1 3.1
2018-Feb-16 18:31N 39°50' W 075°23'0 0.0
2018-Feb-16 11:50N 39°50' W 075°23'1 2.0
2018-Feb-16 11:31N 39°50' W 075°22'0 0.3
2018-Feb-16 11:00N 39°50' W 075°22'1 0.1
2018-Feb-16 00:07N 39°50' W 075°23'1 6.7
2018-Feb-16 00:00N 39°50' W 075°22'7 7.6
2018-Feb-15 23:06N 39°52' W 075°14'110.7
2018-Feb-15 23:00N 39°52' W 075°13'1 2.7
2018-Feb-15 22:30N 39°54' W 075°12'1 2.4
2018-Feb-15 22:00N 39°53' W 075°10'5 9.0
2018-Feb-15 21:30N 39°57' W 075°08'5 9.8
2018-Feb-15 21:01N 40°00' W 075°03'510.3
2018-Feb-15 20:30N 40°03' W 074°58'5 9.1
2018-Feb-15 20:01N 40°05' W 074°52'2 4.8
2018-Feb-15 19:30N 40°07' W 074°50'2 4.9
2018-Feb-15 19:00N 40°05' W 074°52'4 8.5
2018-Feb-15 18:30N 40°03' W 074°57'4 8.9
2018-Feb-15 18:00N 40°01' W 075°02'4 8.7
2018-Feb-15 17:30N 39°58' W 075°07'4 8.5
2018-Feb-15 17:00N 39°54' W 075°08'4 8.7
2018-Feb-15 16:30N 39°52' W 075°13'5 9.5
2018-Feb-15 16:00N 39°51' W 075°19'3 6.8
2018-Feb-15 15:30N 39°50' W 075°23'3 5.8
2018-Feb-15 15:00N 39°48' W 075°26'5 9.7
2018-Feb-15 14:30N 39°44' W 075°30'5 9.6
2018-Feb-15 14:00N 39°40' W 075°32'4 8.4
2018-Feb-15 13:30N 39°36' W 075°34'3 5.4
2018-Feb-15 13:00N 39°33' W 075°32'2 4.3
2018-Feb-15 12:30N 39°34' W 075°29'0 0.1
2018-Feb-15 12:00N 39°34' W 075°29'2 4.6
2018-Feb-15 11:30N 39°33' W 075°32'3 5.8
2018-Feb-15 11:00N 39°36' W 075°34'5 9.7
2018-Feb-15 10:30N 39°40' W 075°32'510.8
2018-Feb-15 10:00N 39°45' W 075°29'510.6
2018-Feb-15 09:30N 39°49' W 075°24'1 0.0
2018-Feb-13 19:00N 39°50' W 075°23'1 2.2
2018-Feb-13 18:30N 39°50' W 075°22'1 0.8
2018-Feb-13 17:08N 39°50' W 075°23'0 0.1
2018-Feb-13 17:01N 39°50' W 075°23'0 0.0
2018-Feb-13 16:30N 39°50' W 075°23'0 0.0
2018-Feb-13 16:01N 39°50' W 075°23'0 0.0
2018-Feb-13 15:30N 39°50' W 075°23'1 1.7
2018-Feb-13 15:00N 39°50' W 075°22'510.1
2018-Feb-13 14:30N 39°47' W 075°28'510.9
2018-Feb-13 14:00N 39°42' W 075°31'510.8
2018-Feb-13 13:30N 39°38' W 075°35'510.1
2018-Feb-13 13:00N 39°33' W 075°32'3 5.0
2018-Feb-13 12:30N 39°34' W 075°30'0 0.9
2018-Feb-13 12:00N 39°34' W 075°29'2 4.1
2018-Feb-13 11:31N 39°34' W 075°31'1 2.2
2018-Feb-13 11:00N 39°34' W 075°33'4 7.8
2018-Feb-13 10:30N 39°37' W 075°35'5 9.3
2018-Feb-13 10:00N 39°41' W 075°31'5 9.6
2018-Feb-13 09:30N 39°46' W 075°29'5 9.4
2018-Feb-13 09:00N 39°49' W 075°24'1 2.5
2018-Feb-13 08:30N 39°50' W 075°23'0 0.0
2018-Feb-13 08:00N 39°50' W 075°23'0 0.0
2018-Feb-13 07:30N 39°50' W 075°23'0 0.0
2018-Feb-13 07:00N 39°50' W 075°23'0 0.0
2018-Feb-13 06:31N 39°50' W 075°23'0 0.0
2018-Feb-13 06:00N 39°50' W 075°23'0 0.0
2018-Feb-13 05:30N 39°50' W 075°23'0 0.0
2018-Feb-13 05:00N 39°50' W 075°23'0 0.0
2018-Feb-13 04:30N 39°50' W 075°23'0 0.0
2018-Feb-13 04:00N 39°50' W 075°23'0 0.0
2018-Feb-13 03:30N 39°50' W 075°23'0 0.0
2018-Feb-13 03:00N 39°50' W 075°23'1 2.2
2018-Feb-13 02:31N 39°50' W 075°22'0 0.4
2018-Feb-13 02:00N 39°49' W 075°21'1 1.0
2018-Feb-13 01:30N 39°50' W 075°22'2 4.9
2018-Feb-13 01:00N 39°51' W 075°19'3 6.1
2018-Feb-13 00:30N 39°51' W 075°15'3 7.0
2018-Feb-13 00:01N 39°53' W 075°11'3 6.7
2018-Feb-12 23:30N 39°55' W 075°08'4 7.2
2018-Feb-12 23:01N 39°58' W 075°07'4 7.8
2018-Feb-12 22:30N 40°01' W 075°03'4 8.1
2018-Feb-12 22:00N 40°03' W 074°58'4 8.2
2018-Feb-12 21:30N 40°05' W 074°53'4 7.7
2018-Feb-12 21:00N 40°07' W 074°50'4 7.0
2018-Feb-12 20:30N 40°08' W 074°45'0 0.5
2018-Feb-12 20:00N 40°08' W 074°45'0 0.0
2018-Feb-12 19:30N 40°08' W 074°45'0 0.0
2018-Feb-12 19:00N 40°08' W 074°45'0 0.0
2018-Feb-12 18:30N 40°08' W 074°45'0 0.0
2018-Feb-12 18:00N 40°08' W 074°45'0 0.0
2018-Feb-12 17:30N 40°08' W 074°45'0 0.0
2018-Feb-12 17:00N 40°08' W 074°45'0 0.0
2018-Feb-12 16:30N 40°08' W 074°45'0 0.0
2018-Feb-12 15:59N 40°08' W 074°45'0 0.0
2018-Feb-12 15:31N 40°08' W 074°45'0 0.0
2018-Feb-12 15:00N 40°08' W 074°45'0 0.0
2018-Feb-12 14:30N 40°08' W 074°45'0 0.0
2018-Feb-12 14:00N 40°08' W 074°45'0 0.0
2018-Feb-12 13:30N 40°08' W 074°45'0 0.0
2018-Feb-12 13:00N 40°08' W 074°45'0 0.0
2018-Feb-12 12:30N 40°08' W 074°45'0 0.0
2018-Feb-12 11:59N 40°08' W 074°45'0 0.0
2018-Feb-12 11:30N 40°08' W 074°45'0 0.0
2018-Feb-12 11:00N 40°08' W 074°45'0 0.0
2018-Feb-12 10:30N 40°08' W 074°45'0 0.0
2018-Feb-12 10:01N 40°08' W 074°45'0 0.0
2018-Feb-12 09:31N 40°08' W 074°45'0 0.0
2018-Feb-12 09:01N 40°08' W 074°45'  
Track history (hours):
 
Tides and Currents Weather Stations Pressure Air Temp Water Temp Dewpoint Dewpoint Depression Visibility Wind Speed Wind Dir Waves Ship Positions

Taurus

Owner: Kirby Offshore Marine, LLC, Seattle, WA. More information available from US FCC via Universal Licensing System and Coast Guard Vessel Documentation Center.

Last reported at 2018-Feb-22 09:00 UTC. Time now 2018-Feb-22 09:04 UTC.
Position N 39°51' W 075°18'.

Length 24 m.

Type: Ship (hazmat cat B). MMSI: 366910990.

Date/timePositionNaut miles runAvg speedWind from/ knotsBaromVisibWave heightAir tempDewpointWater temp
2018-Feb-22 09:00N 39°51' W 075°18'0 0.3
2018-Feb-22 08:30N 39°51' W 075°18'0 0.0
2018-Feb-22 08:00N 39°51' W 075°18'0 0.0
2018-Feb-22 07:30N 39°51' W 075°18'0 0.0
2018-Feb-22 07:00N 39°51' W 075°18'0 0.5
2018-Feb-22 06:30N 39°51' W 075°18'3 5.9
2018-Feb-22 05:59N 39°50' W 075°22'0 0.4
2018-Feb-22 05:30N 39°49' W 075°22'0 0.2
2018-Feb-22 05:00N 39°50' W 075°22'1 2.4
2018-Feb-22 04:30N 39°51' W 075°21'2 4.7
2018-Feb-22 04:00N 39°51' W 075°18'0 0.3
2018-Feb-22 03:30N 39°51' W 075°18'0 0.3
2018-Feb-22 03:00N 39°51' W 075°18'0 0.2
2018-Feb-22 02:30N 39°51' W 075°18'0 0.1
2018-Feb-22 02:00N 39°51' W 075°18'1 2.7
2018-Feb-22 01:30N 39°51' W 075°20'2 4.3
2018-Feb-22 01:00N 39°50' W 075°22'0 0.8
2018-Feb-22 00:30N 39°49' W 075°22'0 0.2
2018-Feb-22 00:00N 39°49' W 075°22'2 3.7
2018-Feb-21 23:30N 39°51' W 075°20'2 3.2
2018-Feb-21 23:00N 39°51' W 075°18'2 5.0
2018-Feb-21 22:30N 39°50' W 075°21'2 3.4
2018-Feb-21 22:00N 39°50' W 075°23'0 0.0
2018-Feb-21 10:17N 39°50' W 075°23'2 6.7
2018-Feb-21 10:00N 39°51' W 075°21'3 5.2
2018-Feb-21 09:31N 39°51' W 075°18'0 0.2
2018-Feb-21 09:01N 39°51' W 075°18'0 0.0
2018-Feb-21 08:31N 39°51' W 075°18'0 0.0
2018-Feb-21 08:01N 39°51' W 075°18'0 0.0
2018-Feb-21 07:30N 39°51' W 075°18'0 0.0
2018-Feb-21 07:00N 39°51' W 075°18'0 0.0
2018-Feb-21 06:31N 39°51' W 075°18'0 0.0
2018-Feb-21 06:00N 39°51' W 075°18'0 0.0
2018-Feb-21 05:30N 39°51' W 075°18'0 0.0
2018-Feb-21 05:00N 39°51' W 075°18'0 0.0
2018-Feb-21 04:31N 39°51' W 075°18'0 0.0
2018-Feb-21 04:01N 39°51' W 075°18'0 0.0
2018-Feb-21 03:30N 39°51' W 075°18'0 0.0
2018-Feb-21 03:00N 39°51' W 075°18'0 0.0
2018-Feb-21 02:30N 39°51' W 075°18'0 0.0
2018-Feb-21 02:00N 39°51' W 075°18'0 0.0
2018-Feb-21 01:30N 39°51' W 075°18'0 0.1
2018-Feb-21 01:00N 39°51' W 075°18'2 4.0
2018-Feb-21 00:31N 39°51' W 075°20'1 2.8
2018-Feb-21 00:01N 39°50' W 075°22'1 1.6
2018-Feb-20 23:30N 39°50' W 075°21'3 5.5
2018-Feb-20 23:01N 39°51' W 075°18'5 9.5
2018-Feb-20 22:30N 39°53' W 075°12'0 0.9
2018-Feb-20 22:00N 39°53' W 075°12'3 6.8
2018-Feb-20 21:31N 39°55' W 075°08'3 5.5
2018-Feb-20 21:00N 39°57' W 075°08'1 1.7
2018-Feb-20 20:31N 39°57' W 075°08'4 7.9
2018-Feb-20 20:01N 39°53' W 075°10'5 9.1
2018-Feb-20 19:30N 39°51' W 075°15'4 8.0
2018-Feb-20 19:00N 39°51' W 075°20'2 4.8
2018-Feb-20 18:30N 39°49' W 075°23'0 0.4
2018-Feb-20 18:01N 39°50' W 075°23'0 0.0
2018-Feb-20 17:31N 39°50' W 075°23'0 0.0
2018-Feb-20 17:00N 39°50' W 075°23'0 0.0
2018-Feb-20 05:48N 39°50' W 075°23'1 3.0
2018-Feb-20 05:30N 39°49' W 075°22'0 0.4
2018-Feb-20 05:00N 39°49' W 075°22'0 0.1
2018-Feb-20 04:30N 39°49' W 075°22'0 0.0
2018-Feb-20 04:00N 39°49' W 075°22'0 0.0
2018-Feb-20 03:30N 39°49' W 075°22'0 0.0
2018-Feb-20 03:00N 39°49' W 075°22'0 0.0
2018-Feb-20 02:30N 39°49' W 075°22'0 0.0
2018-Feb-20 02:00N 39°49' W 075°22'0 0.0
2018-Feb-20 01:30N 39°49' W 075°22'0 0.0
2018-Feb-20 01:00N 39°49' W 075°22'0 0.2
2018-Feb-20 00:30N 39°49' W 075°22'0 0.0
2018-Feb-20 00:00N 39°49' W 075°22'0 0.0
2018-Feb-19 23:30N 39°49' W 075°22'0 0.0
2018-Feb-19 23:00N 39°49' W 075°22'0 0.2
2018-Feb-19 22:30N 39°49' W 075°21'2 4.6
2018-Feb-19 22:01N 39°51' W 075°19'3 6.4
2018-Feb-19 21:31N 39°50' W 075°23'0 0.0
2018-Feb-19 21:00N 39°50' W 075°23'0 0.0
2018-Feb-19 09:14N 39°50' W 075°23'1 4.2
2018-Feb-19 09:01N 39°50' W 075°22'3 6.5
2018-Feb-19 08:29N 39°51' W 075°18'0 0.2
2018-Feb-19 08:00N 39°51' W 075°18'0 0.0
2018-Feb-19 07:30N 39°51' W 075°18'0 0.0
2018-Feb-19 07:00N 39°51' W 075°18'0 0.0
2018-Feb-19 06:30N 39°51' W 075°18'0 0.0
2018-Feb-19 06:01N 39°51' W 075°18'0 0.0
2018-Feb-19 05:30N 39°51' W 075°18'0 0.0
2018-Feb-19 05:01N 39°51' W 075°18'0 0.0
2018-Feb-19 04:31N 39°51' W 075°18'0 0.0
2018-Feb-19 04:00N 39°51' W 075°18'0 0.0
2018-Feb-19 03:31N 39°51' W 075°18'0 0.0
2018-Feb-19 03:01N 39°51' W 075°18'0 0.0
2018-Feb-19 02:30N 39°51' W 075°18'0 0.0
2018-Feb-19 02:00N 39°51' W 075°18'0 0.0
2018-Feb-19 01:30N 39°51' W 075°18'0 0.0
2018-Feb-19 01:00N 39°51' W 075°18'0 0.0
2018-Feb-19 00:31N 39°51' W 075°18'0 0.0
2018-Feb-19 00:01N 39°51' W 075°18'0 0.0
2018-Feb-18 23:30N 39°51' W 075°18'0 0.0
2018-Feb-18 23:00N 39°51' W 075°18'3 5.1
2018-Feb-18 22:30N 39°51' W 075°21'1 0.1
2018-Feb-18 01:41N 39°50' W 075°23'1 5.6
2018-Feb-18 01:30N 39°49' W 075°21'0 0.8
2018-Feb-18 01:00N 39°50' W 075°22'3 5.0
2018-Feb-18 00:30N 39°51' W 075°19'4 8.1
2018-Feb-18 00:01N 39°52' W 075°14'4 7.9
2018-Feb-17 23:30N 39°53' W 075°09'4 7.5
2018-Feb-17 23:00N 39°57' W 075°08'4 7.4
2018-Feb-17 22:30N 39°59' W 075°04'4 7.5
2018-Feb-17 22:01N 40°01' W 075°01'3 6.8
2018-Feb-17 21:30N 40°04' W 074°57'3 6.8
2018-Feb-17 21:00N 40°05' W 074°53'3 6.1
2018-Feb-17 20:30N 40°06' W 074°50'2 4.9
2018-Feb-17 20:00N 40°07' W 074°47'2 3.2
2018-Feb-17 19:27N 40°08' W 074°45'0 0.0
2018-Feb-17 19:00N 40°08' W 074°45'0 0.1
2018-Feb-17 18:30N 40°08' W 074°45'0 0.0
2018-Feb-17 17:59N 40°08' W 074°45'0 0.0
2018-Feb-17 17:30N 40°08' W 074°45'0 0.0
2018-Feb-17 17:00N 40°08' W 074°45'0 0.0
2018-Feb-17 16:30N 40°08' W 074°45'0 0.0
2018-Feb-17 15:55N 40°08' W 074°45'0 0.0
2018-Feb-17 15:30N 40°08' W 074°45'0 0.0
2018-Feb-17 15:00N 40°08' W 074°45'0 0.0
2018-Feb-17 14:30N 40°08' W 074°45'0 0.0
2018-Feb-17 13:47N 40°08' W 074°45'0 0.0
2018-Feb-17 13:27N 40°08' W 074°45'0 0.0
2018-Feb-17 12:37N 40°08' W 074°45'0 0.0
2018-Feb-17 12:20N 40°08' W 074°45'0 0.1
2018-Feb-17 11:59N 40°08' W 074°45'34 3.3
2018-Feb-17 01:54N 39°50' W 075°22'0 0.3
2018-Feb-17 01:10N 39°50' W 075°22'1 0.2
2018-Feb-16 21:12N 39°50' W 075°23'1 0.5
2018-Feb-16 18:54N 39°49' W 075°21'1 3.1
2018-Feb-16 18:31N 39°50' W 075°23'0 0.0
2018-Feb-16 11:50N 39°50' W 075°23'1 2.0
2018-Feb-16 11:31N 39°50' W 075°22'0 0.3
2018-Feb-16 11:00N 39°50' W 075°22'1 0.1
2018-Feb-16 00:07N 39°50' W 075°23'1 6.7
2018-Feb-16 00:00N 39°50' W 075°22'7 7.6
2018-Feb-15 23:06N 39°52' W 075°14'110.7
2018-Feb-15 23:00N 39°52' W 075°13'1 2.7
2018-Feb-15 22:30N 39°54' W 075°12'1 2.4
2018-Feb-15 22:00N 39°53' W 075°10'5 9.0
2018-Feb-15 21:30N 39°57' W 075°08'5 9.8
2018-Feb-15 21:01N 40°00' W 075°03'510.3
2018-Feb-15 20:30N 40°03' W 074°58'5 9.1
2018-Feb-15 20:01N 40°05' W 074°52'2 4.8
2018-Feb-15 19:30N 40°07' W 074°50'2 4.9
2018-Feb-15 19:00N 40°05' W 074°52'4 8.5
2018-Feb-15 18:30N 40°03' W 074°57'4 8.9
2018-Feb-15 18:00N 40°01' W 075°02'4 8.7
2018-Feb-15 17:30N 39°58' W 075°07'4 8.5
2018-Feb-15 17:00N 39°54' W 075°08'4 8.7
2018-Feb-15 16:30N 39°52' W 075°13'5 9.5
2018-Feb-15 16:00N 39°51' W 075°19'3 6.8
2018-Feb-15 15:30N 39°50' W 075°23'3 5.8
2018-Feb-15 15:00N 39°48' W 075°26'5 9.7
2018-Feb-15 14:30N 39°44' W 075°30'5 9.6
2018-Feb-15 14:00N 39°40' W 075°32'4 8.4
2018-Feb-15 13:30N 39°36' W 075°34'3 5.4
2018-Feb-15 13:00N 39°33' W 075°32'2 4.3
2018-Feb-15 12:30N 39°34' W 075°29'0 0.1
2018-Feb-15 12:00N 39°34' W 075°29'2 4.6
2018-Feb-15 11:30N 39°33' W 075°32'3 5.8
2018-Feb-15 11:00N 39°36' W 075°34'5 9.7
2018-Feb-15 10:30N 39°40' W 075°32'510.8
2018-Feb-15 10:00N 39°45' W 075°29'510.6
2018-Feb-15 09:30N 39°49' W 075°24'1 0.0
2018-Feb-13 19:00N 39°50' W 075°23'1 2.2
2018-Feb-13 18:30N 39°50' W 075°22'1 0.8
2018-Feb-13 17:08N 39°50' W 075°23'0 0.1
2018-Feb-13 17:01N 39°50' W 075°23'0 0.0
2018-Feb-13 16:30N 39°50' W 075°23'0 0.0
2018-Feb-13 16:01N 39°50' W 075°23'0 0.0
2018-Feb-13 15:30N 39°50' W 075°23'1 1.7
2018-Feb-13 15:00N 39°50' W 075°22'510.1
2018-Feb-13 14:30N 39°47' W 075°28'510.9
2018-Feb-13 14:00N 39°42' W 075°31'510.8
2018-Feb-13 13:30N 39°38' W 075°35'510.1
2018-Feb-13 13:00N 39°33' W 075°32'3 5.0
2018-Feb-13 12:30N 39°34' W 075°30'0 0.9
2018-Feb-13 12:00N 39°34' W 075°29'2 4.1
2018-Feb-13 11:31N 39°34' W 075°31'1 2.2
2018-Feb-13 11:00N 39°34' W 075°33'4 7.8
2018-Feb-13 10:30N 39°37' W 075°35'5 9.3
2018-Feb-13 10:00N 39°41' W 075°31'5 9.6
2018-Feb-13 09:30N 39°46' W 075°29'5 9.4
2018-Feb-13 09:00N 39°49' W 075°24'1 2.5
2018-Feb-13 08:30N 39°50' W 075°23'0 0.0
2018-Feb-13 08:00N 39°50' W 075°23'0 0.0
2018-Feb-13 07:30N 39°50' W 075°23'0 0.0
2018-Feb-13 07:00N 39°50' W 075°23'0 0.0
2018-Feb-13 06:31N 39°50' W 075°23'0 0.0
2018-Feb-13 06:00N 39°50' W 075°23'0 0.0
2018-Feb-13 05:30N 39°50' W 075°23'0 0.0
2018-Feb-13 05:00N 39°50' W 075°23'0 0.0
2018-Feb-13 04:30N 39°50' W 075°23'0 0.0
2018-Feb-13 04:00N 39°50' W 075°23'0 0.0
2018-Feb-13 03:30N 39°50' W 075°23'0 0.0
2018-Feb-13 03:00N 39°50' W 075°23'1 2.2
2018-Feb-13 02:31N 39°50' W 075°22'0 0.4
2018-Feb-13 02:00N 39°49' W 075°21'1 1.0
2018-Feb-13 01:30N 39°50' W 075°22'2 4.9
2018-Feb-13 01:00N 39°51' W 075°19'3 6.1
2018-Feb-13 00:30N 39°51' W 075°15'3 7.0
2018-Feb-13 00:01N 39°53' W 075°11'3 6.7
2018-Feb-12 23:30N 39°55' W 075°08'4 7.2
2018-Feb-12 23:01N 39°58' W 075°07'4 7.8
2018-Feb-12 22:30N 40°01' W 075°03'4 8.1
2018-Feb-12 22:00N 40°03' W 074°58'4 8.2
2018-Feb-12 21:30N 40°05' W 074°53'4 7.7
2018-Feb-12 21:00N 40°07' W 074°50'4 7.0
2018-Feb-12 20:30N 40°08' W 074°45'0 0.5
2018-Feb-12 20:00N 40°08' W 074°45'0 0.0
2018-Feb-12 19:30N 40°08' W 074°45'0 0.0
2018-Feb-12 19:00N 40°08' W 074°45'0 0.0
2018-Feb-12 18:30N 40°08' W 074°45'0 0.0
2018-Feb-12 18:00N 40°08' W 074°45'0 0.0
2018-Feb-12 17:30N 40°08' W 074°45'0 0.0
2018-Feb-12 17:00N 40°08' W 074°45'0 0.0
2018-Feb-12 16:30N 40°08' W 074°45'0 0.0
2018-Feb-12 15:59N 40°08' W 074°45'0 0.0
2018-Feb-12 15:31N 40°08' W 074°45'0 0.0
2018-Feb-12 15:00N 40°08' W 074°45'0 0.0
2018-Feb-12 14:30N 40°08' W 074°45'0 0.0
2018-Feb-12 14:00N 40°08' W 074°45'0 0.0
2018-Feb-12 13:30N 40°08' W 074°45'0 0.0
2018-Feb-12 13:00N 40°08' W 074°45'0 0.0
2018-Feb-12 12:30N 40°08' W 074°45'0 0.0
2018-Feb-12 11:59N 40°08' W 074°45'0 0.0
2018-Feb-12 11:30N 40°08' W 074°45'0 0.0
2018-Feb-12 11:00N 40°08' W 074°45'0 0.0
2018-Feb-12 10:30N 40°08' W 074°45'0 0.0
2018-Feb-12 10:01N 40°08' W 074°45'0 0.0
2018-Feb-12 09:31N 40°08' W 074°45'0 0.0
2018-Feb-12 09:01N 40°08' W 074°45'  

Dump ship's entire track history